Montblanc, Spain
Current Conditions -  °F | °C
As of 10:30 AM on Sunday 26 Oct 2014 (Local Time) from LERS Reporting Station
Few Clouds Few Clouds  
Wind Chill: 70°   Ceiling: Unl
Heat Index: 70°   Visibility: 6mi
Dew Point: 57°   Wind: 2mph
Humidity: 64%   Direction: NA
Pressure: 30.21"   Gusts: NA
Location:  41.38°N, 1.16°E
Report Text: LERS 260830Z VRB02KT 9999 FEW025 21/14 Q1023
Loading
Personal Weather Stations






























Interactive Weather Map
Tropical Storm Tracking
New forecast layout! Learn more

10-Day Weather Forecast

Advertisements
Track Severe Weather on mobile